createdAt,value
2024-02-27T00:02:24.898Z,101167.72
2024-02-27T00:04:51.429Z,101164.28
2024-02-27T00:07:18.230Z,101167.16
2024-02-27T00:09:45.604Z,101161.00
2024-02-27T00:12:12.466Z,101161.63
2024-02-27T00:14:40.535Z,101169.72
2024-02-27T00:17:07.179Z,101184.06
2024-02-27T00:19:34.073Z,101178.31
2024-02-27T00:22:00.825Z,101189.25
2024-02-27T00:24:27.467Z,101184.53
2024-02-27T00:26:54.160Z,101191.84
2024-02-27T00:29:21.605Z,101184.66
2024-02-27T00:31:49.541Z,101197.59
2024-02-27T00:34:17.123Z,101197.22
2024-02-27T00:36:43.959Z,101206.25
2024-02-27T00:39:10.667Z,101194.81
2024-02-27T00:41:40.296Z,101196.97
2024-02-27T00:44:08.457Z,101190.94
2024-02-27T00:46:35.125Z,101191.16
2024-02-27T00:49:03.092Z,101170.25
2024-02-27T00:51:29.743Z,101194.88
2024-02-27T00:53:56.473Z,101188.63
2024-02-27T00:56:23.169Z,101202.28
2024-02-27T00:58:49.808Z,101200.91
2024-02-27T01:01:16.566Z,101203.53
2024-02-27T01:03:43.221Z,101203.94
2024-02-27T01:06:11.456Z,101202.06
2024-02-27T01:08:38.286Z,101204.91
2024-02-27T01:11:05.064Z,101207.31
2024-02-27T01:13:31.695Z,101211.63
2024-02-27T01:15:58.327Z,101203.84
2024-02-27T01:18:24.983Z,101202.78
2024-02-27T01:20:51.688Z,101197.94
2024-02-27T01:23:20.699Z,101201.91
2024-02-27T01:25:47.633Z,101213.41
2024-02-27T01:28:14.370Z,101217.00
2024-02-27T01:30:41.021Z,101216.13
2024-02-27T01:33:07.781Z,101216.59
2024-02-27T01:35:34.567Z,101220.16
2024-02-27T01:38:01.162Z,101220.47
2024-02-27T01:40:29.060Z,101228.16
2024-02-27T01:42:55.656Z,101240.75
2024-02-27T01:45:23.390Z,101230.09
2024-02-27T01:47:50.263Z,101247.00
2024-02-27T01:50:18.491Z,101239.03
2024-02-27T01:52:46.225Z,101250.13
2024-02-27T01:55:13.986Z,101223.78
2024-02-27T01:57:42.440Z,101256.13
2024-02-27T02:00:15.618Z,101233.94
2024-02-27T02:02:45.491Z,101248.72
2024-02-27T02:05:12.744Z,101246.75
2024-02-27T02:07:41.180Z,101253.78
2024-02-27T02:10:11.455Z,101258.78
2024-02-27T02:12:38.282Z,101261.31
2024-02-27T02:15:07.840Z,101264.59
2024-02-27T02:17:35.493Z,101267.25
2024-02-27T02:20:06.205Z,101261.84
2024-02-27T02:22:34.984Z,101263.44
2024-02-27T02:25:02.295Z,101266.44
2024-02-27T02:27:30.139Z,101262.34
2024-02-27T02:29:57.430Z,101263.03
2024-02-27T02:32:24.104Z,101272.56
2024-02-27T02:34:50.735Z,101275.06
2024-02-27T02:37:17.311Z,101273.72
2024-02-27T02:39:45.300Z,101282.47
2024-02-27T02:42:12.005Z,101284.34
2024-02-27T02:44:38.653Z,101281.53
2024-02-27T02:47:05.301Z,101285.34
2024-02-27T02:49:32.260Z,101282.78
2024-02-27T02:51:59.175Z,101288.88
2024-02-27T02:54:25.833Z,101287.94
2024-02-27T02:56:53.763Z,101291.47
2024-02-27T02:59:22.341Z,101292.91
2024-02-27T03:01:48.901Z,101291.53
2024-02-27T03:04:15.456Z,101289.84
2024-02-27T03:06:42.195Z,101290.41
2024-02-27T03:09:09.535Z,101291.56
2024-02-27T03:11:36.271Z,101288.88
2024-02-27T03:14:04.471Z,101287.66
2024-02-27T03:16:31.086Z,101287.28
2024-02-27T03:18:57.807Z,101285.38
2024-02-27T03:21:24.567Z,101286.06
2024-02-27T03:23:51.142Z,101282.50
2024-02-27T03:26:17.947Z,101284.69
2024-02-27T03:28:44.529Z,101287.44
2024-02-27T03:31:12.441Z,101273.00
2024-02-27T03:33:39.069Z,101291.06
2024-02-27T03:36:06.576Z,101296.56
2024-02-27T03:38:33.333Z,101295.28
2024-02-27T03:40:59.986Z,101301.59
2024-02-27T03:43:26.555Z,101295.97
2024-02-27T03:45:53.225Z,101296.81
2024-02-27T03:48:21.489Z,101291.47
2024-02-27T03:50:48.178Z,101287.59
2024-02-27T03:53:14.804Z,101292.69
2024-02-27T03:55:41.517Z,101301.75
2024-02-27T03:58:08.162Z,101304.78
2024-02-27T04:00:34.920Z,101315.06
2024-02-27T04:03:01.644Z,101313.56
2024-02-27T04:05:29.776Z,101308.09
2024-02-27T04:07:56.338Z,101303.78
2024-02-27T04:10:22.996Z,101303.97
2024-02-27T04:12:49.631Z,101297.03
2024-02-27T04:15:16.369Z,101306.38
2024-02-27T04:17:42.982Z,101300.78
2024-02-27T04:20:10.541Z,101301.88
2024-02-27T04:22:38.555Z,101307.78
2024-02-27T04:25:06.083Z,101315.88
2024-02-27T04:27:32.605Z,101304.63
2024-02-27T04:29:59.495Z,101320.59
2024-02-27T04:32:26.117Z,101323.03
2024-02-27T04:34:52.741Z,101322.56
2024-02-27T04:37:19.354Z,101339.09
2024-02-27T04:39:47.435Z,101340.03
2024-02-27T04:42:14.192Z,101333.13
2024-02-27T04:44:40.783Z,101337.38
2024-02-27T04:47:07.391Z,101332.16
2024-02-27T04:49:34.382Z,101337.88
2024-02-27T04:52:01.040Z,101339.00
2024-02-27T04:54:27.744Z,101352.81
2024-02-27T04:56:55.787Z,101348.19
2024-02-27T04:59:22.478Z,101355.97
2024-02-27T05:01:51.672Z,101360.53
2024-02-27T05:04:19.942Z,101362.00
2024-02-27T05:06:46.723Z,101358.03
2024-02-27T05:09:13.623Z,101361.47
2024-02-27T05:11:40.308Z,101354.78
2024-02-27T05:14:08.357Z,101355.75
2024-02-27T05:16:34.951Z,101366.75
2024-02-27T05:19:01.680Z,101363.47
2024-02-27T05:21:29.365Z,101372.09
2024-02-27T05:23:56.157Z,101374.34
2024-02-27T05:26:22.708Z,101382.34
2024-02-27T05:28:49.561Z,101384.38
2024-02-27T05:31:25.366Z,101390.91
2024-02-27T05:33:52.268Z,101388.50
2024-02-27T05:36:19.868Z,101399.75
2024-02-27T05:38:46.354Z,101404.72
2024-02-27T05:41:13.343Z,101399.59
2024-02-27T05:43:40.175Z,101408.03
2024-02-27T05:46:07.251Z,101403.59
2024-02-27T05:48:35.624Z,101405.25
2024-02-27T05:51:02.225Z,101410.91
2024-02-27T05:53:31.215Z,101419.06
2024-02-27T05:55:58.134Z,101417.34
2024-02-27T05:58:25.131Z,101424.41
2024-02-27T06:00:52.411Z,101427.88
2024-02-27T06:03:19.148Z,101429.50
2024-02-27T06:05:47.310Z,101430.16
2024-02-27T06:08:16.689Z,101443.06
2024-02-27T06:10:43.310Z,101432.19
2024-02-27T06:13:09.938Z,101440.84
2024-02-27T06:15:36.612Z,101442.88
2024-02-27T06:18:04.232Z,101441.63
2024-02-27T06:20:49.453Z,101447.66
2024-02-27T06:23:18.103Z,101453.06
2024-02-27T06:25:44.773Z,101455.06
2024-02-27T06:28:11.357Z,101460.41
2024-02-27T06:30:38.034Z,101464.38
2024-02-27T06:33:05.232Z,101465.38
2024-02-27T06:35:31.882Z,101463.97
2024-02-27T06:37:58.491Z,101472.69
2024-02-27T06:40:26.613Z,101471.44
2024-02-27T06:42:53.162Z,101417.59
2024-02-27T06:45:20.440Z,101475.84
2024-02-27T06:47:47.592Z,101486.66
2024-02-27T06:50:14.400Z,101481.28
2024-02-27T06:52:41.333Z,101490.66
2024-02-27T06:55:07.896Z,101494.16
2024-02-27T06:57:35.921Z,101499.56
2024-02-27T07:00:02.920Z,101495.00
2024-02-27T07:02:29.571Z,101517.38
2024-02-27T07:04:56.131Z,101525.03
2024-02-27T07:07:22.807Z,101521.69
2024-02-27T07:09:49.481Z,101520.50
2024-02-27T07:12:16.095Z,101521.13
2024-02-27T07:14:44.108Z,101533.69
2024-02-27T07:17:10.790Z,101528.47
2024-02-27T07:19:37.712Z,101536.53
2024-02-27T07:22:05.001Z,101533.13
2024-02-27T07:24:31.599Z,101536.56
2024-02-27T07:26:58.279Z,101530.97
2024-02-27T07:29:24.826Z,101537.50
2024-02-27T07:31:53.480Z,101534.44
2024-02-27T07:34:22.969Z,101530.16
2024-02-27T07:36:50.238Z,101523.06
2024-02-27T07:39:16.899Z,101526.09
2024-02-27T07:41:44.517Z,101516.25
2024-02-27T07:44:10.958Z,101519.19
2024-02-27T07:46:37.538Z,101516.78
2024-02-27T07:49:05.522Z,101514.41
2024-02-27T07:51:34.076Z,101512.53
2024-02-27T07:54:01.211Z,101512.25
2024-02-27T07:56:31.407Z,101515.63
2024-02-27T07:58:58.365Z,101508.19
2024-02-27T08:01:27.788Z,101512.28
2024-02-27T08:03:54.733Z,101515.81
2024-02-27T08:06:24.182Z,101507.91
2024-02-27T08:08:53.487Z,101512.06
2024-02-27T08:11:20.144Z,101520.59
2024-02-27T08:13:46.796Z,101522.09
2024-02-27T08:16:13.505Z,101527.19
2024-02-27T08:18:40.268Z,101538.63
2024-02-27T08:21:06.997Z,101539.53
2024-02-27T08:23:35.578Z,101547.41
2024-02-27T08:26:02.951Z,101546.75
2024-02-27T08:28:29.566Z,101553.88
2024-02-27T08:30:56.250Z,101564.75
2024-02-27T08:33:23.046Z,101570.00
2024-02-27T08:35:49.819Z,101559.31
2024-02-27T08:38:16.361Z,101564.44
2024-02-27T08:40:45.751Z,101563.03
2024-02-27T08:43:15.214Z,101570.78
2024-02-27T08:45:42.438Z,101570.19
2024-02-27T08:48:09.143Z,101569.19
2024-02-27T08:50:35.752Z,101581.47
2024-02-27T08:53:02.342Z,101578.44
2024-02-27T08:55:31.109Z,101593.53
2024-02-27T08:57:59.071Z,101598.72
2024-02-27T09:00:26.831Z,101592.16
2024-02-27T09:02:53.408Z,101599.63
2024-02-27T09:05:19.946Z,101600.28
2024-02-27T09:07:46.539Z,101610.63
2024-02-27T09:10:13.225Z,101603.56
2024-02-27T09:12:40.587Z,101605.91
2024-02-27T09:15:09.608Z,101600.22
2024-02-27T09:17:36.436Z,101596.41
2024-02-27T09:20:03.689Z,101599.47
2024-02-27T09:22:32.149Z,101599.25
2024-02-27T09:24:58.780Z,101595.13
2024-02-27T09:27:25.341Z,101610.31
2024-02-27T09:29:52.574Z,101608.22
2024-02-27T09:32:24.205Z,101619.59
2024-02-27T09:34:51.875Z,101603.25
2024-02-27T09:37:19.606Z,101609.44
2024-02-27T09:39:54.239Z,101605.75
2024-02-27T09:42:34.528Z,101600.84
2024-02-27T09:45:05.495Z,101603.03
2024-02-27T09:47:35.469Z,101615.03
2024-02-27T09:50:02.619Z,101608.31
2024-02-27T09:52:29.950Z,101609.44
2024-02-27T09:54:57.903Z,101604.41
2024-02-27T09:57:25.340Z,101612.09
2024-02-27T09:59:52.858Z,101603.91
2024-02-27T10:02:19.761Z,101615.78
2024-02-27T10:04:47.825Z,101614.38
2024-02-27T10:07:16.102Z,101613.31
2024-02-27T10:09:45.509Z,101617.38
2024-02-27T10:12:13.780Z,101623.84
2024-02-27T10:14:40.952Z,101625.06
2024-02-27T10:17:08.800Z,101634.47
2024-02-27T10:19:36.461Z,101632.34
2024-02-27T10:22:05.163Z,101635.94
2024-02-27T10:24:31.935Z,101651.06
2024-02-27T10:26:59.583Z,101641.03
2024-02-27T10:29:27.601Z,101653.06
2024-02-27T10:31:54.626Z,101659.97
2024-02-27T10:34:21.650Z,101664.28
2024-02-27T10:36:57.275Z,101657.66
2024-02-27T10:39:25.410Z,101665.06
2024-02-27T10:41:52.609Z,101668.19
2024-02-27T10:44:19.493Z,101666.47
2024-02-27T10:46:47.282Z,101663.78
2024-02-27T10:49:14.428Z,101666.19
2024-02-27T10:51:42.809Z,101666.75
2024-02-27T10:54:09.577Z,101668.78
2024-02-27T10:56:37.560Z,101666.28
2024-02-27T10:59:05.685Z,101673.34
2024-02-27T11:01:33.574Z,101667.81
2024-02-27T11:04:04.356Z,101673.16
2024-02-27T11:06:31.307Z,101672.03
2024-02-27T11:09:04.508Z,101672.09
2024-02-27T11:11:31.641Z,101660.91
2024-02-27T11:14:01.902Z,101664.94
2024-02-27T11:16:29.774Z,101653.00
2024-02-27T11:19:00.764Z,101653.00
2024-02-27T11:21:29.006Z,101649.50
2024-02-27T11:23:55.675Z,101651.97
2024-02-27T11:26:22.815Z,101654.19
2024-02-27T11:28:50.793Z,101650.88
2024-02-27T11:31:22.158Z,101650.88
2024-02-27T11:33:49.808Z,101646.19
2024-02-27T11:36:16.733Z,101638.38
2024-02-27T11:38:44.485Z,101635.09
2024-02-27T11:41:13.936Z,101637.94
2024-02-27T11:43:40.660Z,101635.09
2024-02-27T11:46:36.925Z,101634.84
2024-02-27T11:49:04.969Z,101640.56
2024-02-27T11:51:34.193Z,101623.72
2024-02-27T11:54:00.918Z,101628.69
2024-02-27T11:56:27.915Z,101635.88
2024-02-27T11:58:54.775Z,101629.59
2024-02-27T12:01:23.384Z,101627.97
2024-02-27T12:03:52.246Z,101637.03
2024-02-27T12:06:19.292Z,101632.69
2024-02-27T12:08:47.294Z,101634.97
2024-02-27T12:11:15.488Z,101634.59
2024-02-27T12:13:43.556Z,101634.03
2024-02-27T12:16:10.175Z,101629.44
2024-02-27T12:18:36.992Z,101625.28
2024-02-27T12:21:05.788Z,101628.81
2024-02-27T12:23:32.750Z,101625.06
2024-02-27T12:25:59.599Z,101631.19
2024-02-27T12:28:26.464Z,101633.66
2024-02-27T12:30:53.080Z,101628.22
2024-02-27T12:33:20.064Z,101615.97
2024-02-27T12:35:46.938Z,101630.22
2024-02-27T12:38:15.169Z,101633.28
2024-02-27T12:40:42.764Z,101617.97
2024-02-27T12:43:09.634Z,101624.78
2024-02-27T12:45:36.313Z,101622.84
2024-02-27T12:48:04.466Z,101627.28
2024-02-27T12:50:31.530Z,101621.06
2024-02-27T12:53:06.879Z,101619.88
2024-02-27T12:55:40.705Z,101612.00
2024-02-27T12:58:07.541Z,101611.56
2024-02-27T13:00:34.749Z,101608.25
2024-02-27T13:03:01.598Z,101609.56
2024-02-27T13:05:28.765Z,101599.56
2024-02-27T13:07:56.903Z,101603.28
2024-02-27T13:10:23.921Z,101607.28
2024-02-27T13:13:09.861Z,101610.84
2024-02-27T13:15:36.939Z,101592.50
2024-02-27T13:18:04.220Z,101609.56
2024-02-27T13:20:31.020Z,101604.09
2024-02-27T13:23:02.911Z,101610.91
2024-02-27T13:25:32.692Z,101600.63
2024-02-27T13:27:59.230Z,101609.91
2024-02-27T13:30:27.317Z,101610.22
2024-02-27T13:32:53.950Z,101604.34
2024-02-27T13:35:20.807Z,101601.91
2024-02-27T13:37:48.216Z,101613.50
2024-02-27T13:40:14.802Z,101611.06
2024-02-27T13:42:41.429Z,101611.56
2024-02-27T13:45:08.719Z,101601.81
2024-02-27T13:47:36.732Z,101597.00
2024-02-27T13:50:03.605Z,101592.16
2024-02-27T13:52:30.268Z,101582.38
2024-02-27T13:54:58.011Z,101586.25
2024-02-27T13:57:26.167Z,101585.66
2024-02-27T13:59:53.884Z,101571.69
2024-02-27T14:02:20.500Z,101572.81
2024-02-27T14:04:48.470Z,101576.72
2024-02-27T14:07:15.240Z,101585.41
2024-02-27T14:09:44.321Z,101579.13
2024-02-27T14:12:12.186Z,101576.03
2024-02-27T14:14:39.067Z,101567.81
2024-02-27T14:17:06.044Z,101560.19
2024-02-27T14:19:32.744Z,101573.75
2024-02-27T14:22:00.755Z,101558.53
2024-02-27T14:24:27.405Z,101561.22
2024-02-27T14:26:54.028Z,101556.31
2024-02-27T14:29:20.943Z,101556.44
2024-02-27T14:31:47.513Z,101551.75
2024-02-27T14:34:15.543Z,101558.00
2024-02-27T14:36:42.455Z,101561.78
2024-02-27T14:39:10.491Z,101560.84
2024-02-27T14:41:38.215Z,101560.59
2024-02-27T14:44:08.741Z,101556.19
2024-02-27T14:46:35.873Z,101561.84
2024-02-27T14:49:02.737Z,101559.66
2024-02-27T14:51:30.065Z,101562.00
2024-02-27T14:53:56.671Z,101570.41
2024-02-27T14:56:24.679Z,101568.53
2024-02-27T14:58:52.174Z,101574.22
2024-02-27T15:01:18.830Z,101569.69
2024-02-27T15:03:45.676Z,101521.50
2024-02-27T15:06:12.923Z,101555.16
2024-02-27T15:08:39.858Z,101552.97
2024-02-27T15:11:06.557Z,101552.25
2024-02-27T15:13:34.523Z,101558.84
2024-02-27T15:16:01.074Z,101563.66
2024-02-27T15:18:27.814Z,101554.84
2024-02-27T15:20:57.293Z,101556.94
2024-02-27T15:23:24.158Z,101559.75
2024-02-27T15:25:50.735Z,101559.34
2024-02-27T15:28:17.943Z,101562.91
2024-02-27T15:30:45.953Z,101560.22
2024-02-27T15:33:12.740Z,101562.19
2024-02-27T15:35:42.051Z,101564.53
2024-02-27T15:38:09.964Z,101565.22
2024-02-27T15:40:36.536Z,101565.00
2024-02-27T15:43:03.215Z,101570.16
2024-02-27T15:45:29.770Z,101567.13
2024-02-27T15:47:57.839Z,101569.84
2024-02-27T15:50:24.585Z,101579.81
2024-02-27T15:52:51.224Z,101585.25
2024-02-27T15:55:18.355Z,101581.03
2024-02-27T15:57:45.077Z,101588.28
2024-02-27T16:00:13.008Z,101587.09
2024-02-27T16:02:39.652Z,101585.19
2024-02-27T16:05:10.385Z,101580.31
2024-02-27T16:07:41.244Z,101578.63
2024-02-27T16:10:09.821Z,101574.13
2024-02-27T16:12:38.916Z,101582.56
2024-02-27T16:15:07.422Z,101584.00
2024-02-27T16:17:34.290Z,101584.16
2024-02-27T16:20:01.125Z,101588.34
2024-02-27T16:22:29.769Z,101590.44
2024-02-27T16:24:56.582Z,101587.47
2024-02-27T16:27:23.313Z,101592.41
2024-02-27T16:29:49.948Z,101595.72
2024-02-27T16:32:16.716Z,101593.44
2024-02-27T16:34:43.435Z,101580.38
2024-02-27T16:37:10.956Z,101599.75
2024-02-27T16:39:38.880Z,101594.38
2024-02-27T16:42:05.835Z,101599.25
2024-02-27T16:44:32.501Z,101598.81
2024-02-27T16:46:59.176Z,101600.00
2024-02-27T16:49:25.918Z,101609.59
2024-02-27T16:51:52.747Z,101615.38
2024-02-27T16:54:19.471Z,101611.78
2024-02-27T16:56:47.428Z,101614.34
2024-02-27T16:59:13.998Z,101622.09
2024-02-27T17:01:40.785Z,101618.03
2024-02-27T17:04:07.625Z,101616.63
2024-02-27T17:06:34.559Z,101616.63
2024-02-27T17:09:01.134Z,101619.69
2024-02-27T17:11:27.722Z,101625.78
2024-02-27T17:13:55.657Z,101626.84
2024-02-27T17:16:22.242Z,101630.25
2024-02-27T17:18:49.039Z,101630.91
2024-02-27T17:21:15.850Z,101641.28
2024-02-27T17:23:42.476Z,101643.97
2024-02-27T17:26:11.072Z,101650.09
2024-02-27T17:28:37.681Z,101652.38
2024-02-27T17:31:05.965Z,101647.13
2024-02-27T17:33:32.915Z,101652.59
2024-02-27T17:36:00.600Z,101649.69
2024-02-27T17:38:27.645Z,101660.44
2024-02-27T17:40:54.197Z,101662.56
2024-02-27T17:43:20.862Z,101666.13
2024-02-27T17:45:49.795Z,101671.41
2024-02-27T17:48:18.085Z,101674.00
2024-02-27T17:50:44.750Z,101678.72
2024-02-27T17:53:11.367Z,101677.81
2024-02-27T17:55:38.112Z,101677.72
2024-02-27T17:58:06.814Z,101680.84
2024-02-27T18:00:33.814Z,101686.84
2024-02-27T18:03:00.797Z,101690.03
2024-02-27T18:05:28.933Z,101703.88
2024-02-27T18:07:55.606Z,101701.63
2024-02-27T18:10:22.156Z,101702.44
2024-02-27T18:12:48.869Z,101703.13
2024-02-27T18:15:20.024Z,101700.09
2024-02-27T18:17:49.448Z,101699.56
2024-02-27T18:20:16.809Z,101689.56
2024-02-27T18:22:45.283Z,101697.09
2024-02-27T18:25:13.154Z,101693.75
2024-02-27T18:27:40.465Z,101670.00
2024-02-27T18:30:09.208Z,101696.19
2024-02-27T18:32:38.192Z,101694.69
2024-02-27T18:35:05.650Z,101705.44
2024-02-27T18:37:32.313Z,101699.59
2024-02-27T18:40:01.012Z,101703.97
2024-02-27T18:42:27.716Z,101712.53
2024-02-27T18:44:54.370Z,101713.50
2024-02-27T18:47:21.245Z,101716.19
2024-02-27T18:49:49.465Z,101717.13
2024-02-27T18:52:16.950Z,101720.47
2024-02-27T18:54:43.903Z,101712.59
2024-02-27T18:57:12.008Z,101708.00
2024-02-27T18:59:38.690Z,101718.97
2024-02-27T19:02:05.585Z,101713.78
2024-02-27T19:04:32.226Z,101723.28
2024-02-27T19:06:59.365Z,101723.16
2024-02-27T19:09:26.539Z,101729.84
2024-02-27T19:11:56.380Z,101732.16
2024-02-27T19:14:24.815Z,101741.66
2024-02-27T19:16:51.442Z,101745.16
2024-02-27T19:19:18.484Z,101745.69
2024-02-27T19:21:45.183Z,101747.41
2024-02-27T19:24:11.927Z,101747.34
2024-02-27T19:26:38.549Z,101751.47
2024-02-27T19:29:05.285Z,101759.34
2024-02-27T19:31:33.238Z,101753.41
2024-02-27T19:34:00.020Z,101756.94
2024-02-27T19:36:26.750Z,101759.16
2024-02-27T19:38:53.382Z,101768.75
2024-02-27T19:41:19.964Z,101761.34
2024-02-27T19:43:46.678Z,101781.00
2024-02-27T19:46:14.996Z,101774.97
2024-02-27T19:48:43.067Z,101787.81
2024-02-27T19:51:12.958Z,101778.25
2024-02-27T19:53:39.645Z,101786.25
2024-02-27T19:56:06.454Z,101780.97
2024-02-27T19:58:33.123Z,101790.66
2024-02-27T20:00:59.819Z,101786.22
2024-02-27T20:03:26.624Z,101785.41
2024-02-27T20:05:54.640Z,101782.16
2024-02-27T20:08:21.793Z,101782.44
2024-02-27T20:10:48.437Z,101785.97
2024-02-27T20:13:20.128Z,101787.88
2024-02-27T20:15:47.203Z,101790.41
2024-02-27T20:18:13.794Z,101788.47
2024-02-27T20:20:41.786Z,101792.03
2024-02-27T20:23:10.849Z,101795.41
2024-02-27T20:25:37.518Z,101796.03
2024-02-27T20:28:04.650Z,101796.78
2024-02-27T20:30:31.405Z,101797.59
2024-02-27T20:32:58.251Z,101786.00
2024-02-27T20:35:24.863Z,101809.25
2024-02-27T20:37:52.496Z,101812.19
2024-02-27T20:40:21.543Z,101814.81
2024-02-27T20:42:48.243Z,101804.38
2024-02-27T20:45:15.008Z,101814.63
2024-02-27T20:47:42.081Z,101804.16
2024-02-27T20:50:11.728Z,101804.25
2024-02-27T20:52:38.690Z,101801.78
2024-02-27T20:55:06.210Z,101798.28
2024-02-27T20:57:34.238Z,101794.03
2024-02-27T21:00:01.036Z,101809.41
2024-02-27T21:02:29.836Z,101805.97
2024-02-27T21:04:57.688Z,101799.44
2024-02-27T21:07:25.203Z,101806.38
2024-02-27T21:09:51.854Z,101807.88
2024-02-27T21:12:18.565Z,101801.00
2024-02-27T21:14:46.517Z,101800.94
2024-02-27T21:17:13.183Z,101813.00
2024-02-27T21:19:39.877Z,101802.66
2024-02-27T21:22:06.521Z,101804.34
2024-02-27T21:24:33.170Z,101801.88
2024-02-27T21:26:59.778Z,101803.41
2024-02-27T21:29:26.339Z,101808.47
2024-02-27T21:31:54.284Z,101805.97
2024-02-27T21:34:20.955Z,101813.66
2024-02-27T21:36:47.670Z,101810.47
2024-02-27T21:39:14.591Z,101820.25
2024-02-27T21:41:41.711Z,101801.53
2024-02-27T21:44:08.465Z,101791.31
2024-02-27T21:46:35.701Z,101791.22
2024-02-27T21:49:03.796Z,101750.91
2024-02-27T21:51:30.490Z,101790.16
2024-02-27T21:53:57.118Z,101794.41
2024-02-27T21:56:23.774Z,101784.22
2024-02-27T21:58:50.352Z,101798.03
2024-02-27T22:01:17.049Z,101802.22
2024-02-27T22:03:45.211Z,101793.53
2024-02-27T22:06:13.219Z,101805.50
2024-02-27T22:08:40.876Z,101806.31
2024-02-27T22:11:08.493Z,101812.38
2024-02-27T22:13:35.419Z,101811.66
2024-02-27T22:16:02.143Z,101806.66
2024-02-27T22:18:29.289Z,101811.81
2024-02-27T22:20:55.888Z,101820.41
2024-02-27T22:23:23.874Z,101820.50
2024-02-27T22:25:52.704Z,101810.38
2024-02-27T22:28:19.519Z,101828.41
2024-02-27T22:30:46.269Z,101826.66
2024-02-27T22:33:13.426Z,101829.16
2024-02-27T22:35:40.774Z,101833.47
2024-02-27T22:38:09.401Z,101836.16
2024-02-27T22:40:38.552Z,101832.69
2024-02-27T22:43:05.128Z,101833.53
2024-02-27T22:45:31.758Z,101838.00
2024-02-27T22:47:58.419Z,101840.59
2024-02-27T22:50:25.173Z,101839.88
2024-02-27T22:52:51.808Z,101837.44
2024-02-27T22:55:18.380Z,101822.06
2024-02-27T22:57:46.441Z,101834.66
2024-02-27T23:00:16.443Z,101830.34
2024-02-27T23:02:43.029Z,101830.31
2024-02-27T23:05:10.356Z,101824.31
2024-02-27T23:07:37.300Z,101815.66
2024-02-27T23:10:07.763Z,101819.22
2024-02-27T23:12:34.464Z,101820.97
2024-02-27T23:15:02.495Z,101821.91
2024-02-27T23:17:29.056Z,101820.94
2024-02-27T23:19:55.672Z,101823.53
2024-02-27T23:22:22.209Z,101829.69
2024-02-27T23:24:48.846Z,101828.84
2024-02-27T23:27:15.595Z,101840.03
2024-02-27T23:29:42.167Z,101832.34
2024-02-27T23:32:10.156Z,101830.66
2024-02-27T23:34:36.679Z,101834.00
2024-02-27T23:37:03.748Z,101828.75
2024-02-27T23:39:30.394Z,101830.56
2024-02-27T23:41:56.953Z,101826.41
2024-02-27T23:44:23.621Z,101831.59
2024-02-27T23:46:50.210Z,101828.97
2024-02-27T23:49:18.095Z,101834.22
2024-02-27T23:51:44.705Z,101824.81
2024-02-27T23:54:11.372Z,101832.47
2024-02-27T23:56:37.935Z,101831.75
2024-02-27T23:59:04.557Z,101830.78
